sensor_id;sensor_type;location;lat;lon;timestamp;pressure;altitude;pressure_sealevel;temperature;humidity
14800;BME280;7491;57.750;11.970;2024-03-08T00:00:06;78400.63;;;-142.11;100.00
14800;BME280;7491;57.750;11.970;2024-03-08T00:02:37;78394.50;;;-142.11;100.00
14800;BME280;7491;57.750;11.970;2024-03-08T00:05:05;78388.41;;;-142.11;100.00
14800;BME280;7491;57.750;11.970;2024-03-08T00:07:34;78388.41;;;-142.11;100.00
14800;BME280;7491;57.750;11.970;2024-03-08T00:10:01;78390.44;;;-142.11;100.00
14800;BME280;7491;57.750;11.970;2024-03-08T00:12:28;78386.34;;;-142.11;100.00
14800;BME280;7491;57.750;11.970;2024-03-08T00:14:57;78386.34;;;-142.11;100.00
14800;BME280;7491;57.750;11.970;2024-03-08T00:17:24;78378.19;;;-142.11;100.00
14800;BME280;7491;57.750;11.970;2024-03-08T00:19:52;78390.44;;;-142.11;100.00
14800;BME280;7491;57.750;11.970;2024-03-08T00:22:19;78402.66;;;-142.11;100.00
14800;BME280;7491;57.750;11.970;2024-03-08T00:24:47;78386.34;;;-142.11;100.00
14800;BME280;7491;57.750;11.970;2024-03-08T00:27:15;78390.44;;;-142.11;100.00
14800;BME280;7491;57.750;11.970;2024-03-08T00:29:42;78394.50;;;-142.11;100.00
14800;BME280;7491;57.750;11.970;2024-03-08T00:32:12;78394.50;;;-142.11;100.00
14800;BME280;7491;57.750;11.970;2024-03-08T00:34:38;78404.72;;;-142.11;100.00
14800;BME280;7491;57.750;11.970;2024-03-08T00:37:05;78408.78;;;-142.11;100.00
14800;BME280;7491;57.750;11.970;2024-03-08T00:39:32;78406.75;;;-142.11;100.00
14800;BME280;7491;57.750;11.970;2024-03-08T00:41:59;78400.63;;;-142.11;100.00
14800;BME280;7491;57.750;11.970;2024-03-08T00:44:25;78414.91;;;-142.11;100.00
14800;BME280;7491;57.750;11.970;2024-03-08T00:46:52;78421.03;;;-142.11;100.00
14800;BME280;7491;57.750;11.970;2024-03-08T00:49:20;78431.22;;;-142.11;100.00
14800;BME280;7491;57.750;11.970;2024-03-08T00:51:48;78443.47;;;-142.11;100.00
14800;BME280;7491;57.750;11.970;2024-03-08T00:54:15;78470.00;;;-142.11;100.00
14800;BME280;7491;57.750;11.970;2024-03-08T00:56:42;78474.06;;;-142.11;100.00
14800;BME280;7491;57.750;11.970;2024-03-08T00:59:08;78486.31;;;-142.11;100.00
14800;BME280;7491;57.750;11.970;2024-03-08T01:01:35;78474.06;;;-142.11;100.00
14800;BME280;7491;57.750;11.970;2024-03-08T01:04:02;78467.94;;;-142.11;100.00
14800;BME280;7491;57.750;11.970;2024-03-08T01:06:30;78467.94;;;-142.11;100.00
14800;BME280;7491;57.750;11.970;2024-03-08T01:08:57;78467.94;;;-142.11;100.00
14800;BME280;7491;57.750;11.970;2024-03-08T01:11:24;78476.09;;;-142.11;100.00
14800;BME280;7491;57.750;11.970;2024-03-08T01:13:51;78467.94;;;-142.11;100.00
14800;BME280;7491;57.750;11.970;2024-03-08T01:16:18;78474.06;;;-142.11;100.00
14800;BME280;7491;57.750;11.970;2024-03-08T01:18:45;78470.00;;;-142.11;100.00
14800;BME280;7491;57.750;11.970;2024-03-08T01:21:12;78472.03;;;-142.11;100.00
14800;BME280;7491;57.750;11.970;2024-03-08T01:23:40;78474.06;;;-142.11;100.00
14800;BME280;7491;57.750;11.970;2024-03-08T01:26:07;78496.50;;;-142.11;100.00
14800;BME280;7491;57.750;11.970;2024-03-08T01:28:34;78488.34;;;-142.11;100.00
14800;BME280;7491;57.750;11.970;2024-03-08T01:31:02;78480.19;;;-142.11;100.00
14800;BME280;7491;57.750;11.970;2024-03-08T01:33:31;78488.34;;;-142.11;100.00
14800;BME280;7491;57.750;11.970;2024-03-08T01:35:58;78482.22;;;-142.11;100.00
14800;BME280;7491;57.750;11.970;2024-03-08T01:38:24;78472.03;;;-142.11;100.00
14800;BME280;7491;57.750;11.970;2024-03-08T01:40:53;78476.09;;;-142.11;100.00
14800;BME280;7491;57.750;11.970;2024-03-08T01:43:20;78480.19;;;-142.11;100.00
14800;BME280;7491;57.750;11.970;2024-03-08T01:45:47;78476.09;;;-142.11;100.00
14800;BME280;7491;57.750;11.970;2024-03-08T01:48:14;78482.22;;;-142.11;100.00
14800;BME280;7491;57.750;11.970;2024-03-08T01:50:42;78484.28;;;-142.11;100.00
14800;BME280;7491;57.750;11.970;2024-03-08T01:53:10;78484.28;;;-142.11;100.00
14800;BME280;7491;57.750;11.970;2024-03-08T01:55:38;78484.28;;;-142.11;100.00
14800;BME280;7491;57.750;11.970;2024-03-08T01:58:09;78474.06;;;-142.11;100.00
14800;BME280;7491;57.750;11.970;2024-03-08T02:00:37;78453.66;;;-142.11;100.00
14800;BME280;7491;57.750;11.970;2024-03-08T02:03:06;78449.59;;;-142.11;100.00
14800;BME280;7491;57.750;11.970;2024-03-08T02:05:33;78451.63;;;-142.11;100.00
14800;BME280;7491;57.750;11.970;2024-03-08T02:08:00;78439.38;;;-142.11;100.00
14800;BME280;7491;57.750;11.970;2024-03-08T02:10:28;78425.13;;;-142.11;100.00
14800;BME280;7491;57.750;11.970;2024-03-08T02:12:55;78435.31;;;-142.11;100.00
14800;BME280;7491;57.750;11.970;2024-03-08T02:15:23;78419.00;;;-142.11;100.00
14800;BME280;7491;57.750;11.970;2024-03-08T02:17:51;78410.84;;;-142.11;100.00
14800;BME280;7491;57.750;11.970;2024-03-08T02:20:18;78410.84;;;-142.11;100.00
14800;BME280;7491;57.750;11.970;2024-03-08T02:22:46;78398.59;;;-142.11;100.00
14800;BME280;7491;57.750;11.970;2024-03-08T02:25:13;78408.78;;;-142.11;100.00
14800;BME280;7491;57.750;11.970;2024-03-08T02:27:41;78408.78;;;-142.11;100.00
14800;BME280;7491;57.750;11.970;2024-03-08T02:30:09;78414.91;;;-142.11;100.00
14800;BME280;7491;57.750;11.970;2024-03-08T02:32:37;78416.94;;;-142.11;100.00
14800;BME280;7491;57.750;11.970;2024-03-08T02:35:04;78429.19;;;-142.11;100.00
14800;BME280;7491;57.750;11.970;2024-03-08T02:37:31;78421.03;;;-142.11;100.00
14800;BME280;7491;57.750;11.970;2024-03-08T02:39:59;78423.06;;;-142.11;100.00
14800;BME280;7491;57.750;11.970;2024-03-08T02:42:26;78437.34;;;-142.11;100.00
14800;BME280;7491;57.750;11.970;2024-03-08T02:44:52;78431.22;;;-142.11;100.00
14800;BME280;7491;57.750;11.970;2024-03-08T02:47:19;78429.19;;;-142.11;100.00
14800;BME280;7491;57.750;11.970;2024-03-08T02:49:46;78435.31;;;-142.11;100.00
14800;BME280;7491;57.750;11.970;2024-03-08T02:52:12;78435.31;;;-142.11;100.00
14800;BME280;7491;57.750;11.970;2024-03-08T02:54:39;78439.38;;;-142.11;100.00
14800;BME280;7491;57.750;11.970;2024-03-08T02:57:07;78445.50;;;-142.11;100.00
14800;BME280;7491;57.750;11.970;2024-03-08T02:59:34;78445.50;;;-142.11;100.00
14800;BME280;7491;57.750;11.970;2024-03-08T03:02:00;78451.63;;;-142.11;100.00
14800;BME280;7491;57.750;11.970;2024-03-08T03:04:27;78437.34;;;-142.11;100.00
14800;BME280;7491;57.750;11.970;2024-03-08T03:06:54;78441.44;;;-142.11;100.00
14800;BME280;7491;57.750;11.970;2024-03-08T03:09:20;78443.47;;;-142.11;100.00
14800;BME280;7491;57.750;11.970;2024-03-08T03:11:53;78439.38;;;-142.11;100.00
14800;BME280;7491;57.750;11.970;2024-03-08T03:14:21;78431.22;;;-142.11;100.00
14800;BME280;7491;57.750;11.970;2024-03-08T03:16:47;78433.28;;;-142.11;100.00
14800;BME280;7491;57.750;11.970;2024-03-08T03:19:15;78425.13;;;-142.11;100.00
14800;BME280;7491;57.750;11.970;2024-03-08T03:21:41;78419.00;;;-142.11;100.00
14800;BME280;7491;57.750;11.970;2024-03-08T03:24:08;78412.88;;;-142.11;100.00
14800;BME280;7491;57.750;11.970;2024-03-08T03:26:36;78408.78;;;-142.11;100.00
14800;BME280;7491;57.750;11.970;2024-03-08T03:29:04;78414.91;;;-142.11;100.00
14800;BME280;7491;57.750;11.970;2024-03-08T03:31:32;78427.16;;;-142.11;100.00
14800;BME280;7491;57.750;11.970;2024-03-08T03:33:59;78421.03;;;-142.11;100.00
14800;BME280;7491;57.750;11.970;2024-03-08T03:36:28;78416.94;;;-142.11;100.00
14800;BME280;7491;57.750;11.970;2024-03-08T03:38:55;78423.06;;;-142.11;100.00
14800;BME280;7491;57.750;11.970;2024-03-08T03:41:30;78425.13;;;-142.11;100.00
14800;BME280;7491;57.750;11.970;2024-03-08T03:43:57;78427.16;;;-142.11;100.00
14800;BME280;7491;57.750;11.970;2024-03-08T03:46:24;78441.44;;;-142.11;100.00
14800;BME280;7491;57.750;11.970;2024-03-08T03:48:53;78461.81;;;-142.11;100.00
14800;BME280;7491;57.750;11.970;2024-03-08T03:51:20;78474.06;;;-142.11;100.00
14800;BME280;7491;57.750;11.970;2024-03-08T03:53:47;78488.34;;;-142.11;100.00
14800;BME280;7491;57.750;11.970;2024-03-08T03:56:14;78494.47;;;-142.11;100.00
14800;BME280;7491;57.750;11.970;2024-03-08T03:58:40;78492.44;;;-142.11;100.00
14800;BME280;7491;57.750;11.970;2024-03-08T04:01:07;78502.63;;;-142.11;100.00
14800;BME280;7491;57.750;11.970;2024-03-08T04:03:35;78486.31;;;-142.11;100.00
14800;BME280;7491;57.750;11.970;2024-03-08T04:06:03;78472.03;;;-142.11;100.00
14800;BME280;7491;57.750;11.970;2024-03-08T04:08:30;78459.78;;;-142.11;100.00
14800;BME280;7491;57.750;11.970;2024-03-08T04:10:59;78443.47;;;-142.11;100.00
14800;BME280;7491;57.750;11.970;2024-03-08T04:13:26;78439.38;;;-142.11;100.00
14800;BME280;7491;57.750;11.970;2024-03-08T04:15:53;78439.38;;;-142.11;100.00
14800;BME280;7491;57.750;11.970;2024-03-08T04:18:19;78427.16;;;-142.11;100.00
14800;BME280;7491;57.750;11.970;2024-03-08T04:20:46;78423.06;;;-142.11;100.00
14800;BME280;7491;57.750;11.970;2024-03-08T04:23:14;78408.78;;;-142.11;100.00
14800;BME280;7491;57.750;11.970;2024-03-08T04:25:41;78404.72;;;-142.11;100.00
14800;BME280;7491;57.750;11.970;2024-03-08T04:28:08;78404.72;;;-142.11;100.00
14800;BME280;7491;57.750;11.970;2024-03-08T04:30:37;78388.41;;;-142.11;100.00
14800;BME280;7491;57.750;11.970;2024-03-08T04:33:04;78390.44;;;-142.11;100.00
14800;BME280;7491;57.750;11.970;2024-03-08T04:35:31;78394.50;;;-142.11;100.00
14800;BME280;7491;57.750;11.970;2024-03-08T04:37:58;78402.66;;;-142.11;100.00
14800;BME280;7491;57.750;11.970;2024-03-08T04:40:26;78392.47;;;-142.11;100.00
14800;BME280;7491;57.750;11.970;2024-03-08T04:42:52;78386.34;;;-142.11;100.00
14800;BME280;7491;57.750;11.970;2024-03-08T04:45:19;78384.31;;;-142.11;100.00
14800;BME280;7491;57.750;11.970;2024-03-08T04:47:47;78392.47;;;-142.11;100.00
14800;BME280;7491;57.750;11.970;2024-03-08T04:50:13;78384.31;;;-142.11;100.00
14800;BME280;7491;57.750;11.970;2024-03-08T04:52:40;78374.13;;;-142.11;100.00
14800;BME280;7491;57.750;11.970;2024-03-08T04:55:07;78372.06;;;-142.11;100.00
14800;BME280;7491;57.750;11.970;2024-03-08T04:57:35;78374.13;;;-142.11;100.00
14800;BME280;7491;57.750;11.970;2024-03-08T05:00:02;78378.19;;;-142.11;100.00
14800;BME280;7491;57.750;11.970;2024-03-08T05:02:30;78384.31;;;-142.11;100.00
14800;BME280;7491;57.750;11.970;2024-03-08T05:04:57;78382.28;;;-142.11;100.00
14800;BME280;7491;57.750;11.970;2024-03-08T05:07:23;78376.16;;;-142.11;100.00
14800;BME280;7491;57.750;11.970;2024-03-08T05:09:51;78380.22;;;-142.11;100.00
14800;BME280;7491;57.750;11.970;2024-03-08T05:12:17;78374.13;;;-142.11;100.00
14800;BME280;7491;57.750;11.970;2024-03-08T05:14:46;78363.91;;;-142.11;100.00
14800;BME280;7491;57.750;11.970;2024-03-08T05:17:14;78380.22;;;-142.11;100.00
14800;BME280;7491;57.750;11.970;2024-03-08T05:19:41;78368.00;;;-142.11;100.00
14800;BME280;7491;57.750;11.970;2024-03-08T05:22:08;78370.03;;;-142.11;100.00
14800;BME280;7491;57.750;11.970;2024-03-08T05:24:35;78370.03;;;-142.11;100.00
14800;BME280;7491;57.750;11.970;2024-03-08T05:27:02;78374.13;;;-142.11;100.00
14800;BME280;7491;57.750;11.970;2024-03-08T05:29:28;78374.13;;;-142.11;100.00
14800;BME280;7491;57.750;11.970;2024-03-08T05:31:57;78384.31;;;-142.11;100.00
14800;BME280;7491;57.750;11.970;2024-03-08T05:34:24;78370.03;;;-142.11;100.00
14800;BME280;7491;57.750;11.970;2024-03-08T05:36:51;78370.03;;;-142.11;100.00
14800;BME280;7491;57.750;11.970;2024-03-08T05:39:19;78361.88;;;-142.11;100.00
14800;BME280;7491;57.750;11.970;2024-03-08T05:41:47;78351.69;;;-142.11;100.00
14800;BME280;7491;57.750;11.970;2024-03-08T05:44:13;78351.69;;;-142.11;100.00
14800;BME280;7491;57.750;11.970;2024-03-08T05:46:42;78355.75;;;-142.11;100.00
14800;BME280;7491;57.750;11.970;2024-03-08T05:49:11;78351.69;;;-142.11;100.00
14800;BME280;7491;57.750;11.970;2024-03-08T05:51:40;78372.06;;;-142.11;100.00
14800;BME280;7491;57.750;11.970;2024-03-08T05:54:07;78368.00;;;-142.11;100.00
14800;BME280;7491;57.750;11.970;2024-03-08T05:56:35;78394.50;;;-142.11;100.00
14800;BME280;7491;57.750;11.970;2024-03-08T05:59:02;78408.78;;;-142.11;100.00
14800;BME280;7491;57.750;11.970;2024-03-08T06:01:29;78404.72;;;-142.11;100.00
14800;BME280;7491;57.750;11.970;2024-03-08T06:03:57;78349.63;;;-142.11;100.00
14800;BME280;7491;57.750;11.970;2024-03-08T06:06:26;78196.66;;;-142.11;100.00
14800;BME280;7491;57.750;11.970;2024-03-08T06:08:52;78096.72;;;-142.11;100.00
14800;BME280;7491;57.750;11.970;2024-03-08T06:11:21;78121.19;;;-142.11;100.00
14800;BME280;7491;57.750;11.970;2024-03-08T06:13:48;78062.03;;;-142.11;100.00
14800;BME280;7491;57.750;11.970;2024-03-08T06:16:15;77955.97;;;-142.11;100.00
14800;BME280;7491;57.750;11.970;2024-03-08T06:18:42;77902.94;;;-142.11;100.00
14800;BME280;7491;57.750;11.970;2024-03-08T06:21:09;77894.78;;;-142.11;100.00
14800;BME280;7491;57.750;11.970;2024-03-08T06:23:38;78000.84;;;-142.11;100.00
14800;BME280;7491;57.750;11.970;2024-03-08T06:26:05;78086.50;;;-142.11;100.00
14800;BME280;7491;57.750;11.970;2024-03-08T06:28:32;78137.50;;;-142.11;100.00
14800;BME280;7491;57.750;11.970;2024-03-08T06:31:00;78155.84;;;-142.11;100.00
14800;BME280;7491;57.750;11.970;2024-03-08T06:33:26;78174.22;;;-142.11;100.00
14800;BME280;7491;57.750;11.970;2024-03-08T06:35:53;78174.22;;;-142.11;100.00
14800;BME280;7491;57.750;11.970;2024-03-08T06:38:22;78178.31;;;-142.11;100.00
14800;BME280;7491;57.750;11.970;2024-03-08T06:40:50;78115.06;;;-142.11;100.00
14800;BME280;7491;57.750;11.970;2024-03-08T06:43:17;77919.25;;;-142.11;100.00
14800;BME280;7491;57.750;11.970;2024-03-08T06:45:44;77958.00;;;-142.11;100.00
14800;BME280;7491;57.750;11.970;2024-03-08T06:48:14;78094.66;;;-142.11;100.00
14800;BME280;7491;57.750;11.970;2024-03-08T06:50:40;78131.38;;;-142.11;100.00
14800;BME280;7491;57.750;11.970;2024-03-08T06:53:07;78135.47;;;-142.11;100.00
14800;BME280;7491;57.750;11.970;2024-03-08T06:55:33;78127.31;;;-142.11;100.00
14800;BME280;7491;57.750;11.970;2024-03-08T06:58:02;78147.69;;;-142.11;100.00
14800;BME280;7491;57.750;11.970;2024-03-08T07:00:28;78141.59;;;-142.11;100.00
14800;BME280;7491;57.750;11.970;2024-03-08T07:02:55;78139.53;;;-142.11;100.00
14800;BME280;7491;57.750;11.970;2024-03-08T07:05:26;78147.69;;;-142.11;100.00
14800;BME280;7491;57.750;11.970;2024-03-08T07:07:52;78155.84;;;-142.11;100.00
14800;BME280;7491;57.750;11.970;2024-03-08T07:10:20;78141.59;;;-142.11;100.00
14800;BME280;7491;57.750;11.970;2024-03-08T07:12:49;78145.66;;;-142.11;100.00
14800;BME280;7491;57.750;11.970;2024-03-08T07:15:17;78151.78;;;-142.11;100.00
14800;BME280;7491;57.750;11.970;2024-03-08T07:17:45;78143.63;;;-142.11;100.00
14800;BME280;7491;57.750;11.970;2024-03-08T07:20:12;78151.78;;;-142.11;100.00
14800;BME280;7491;57.750;11.970;2024-03-08T07:22:40;78129.34;;;-142.11;100.00
14800;BME280;7491;57.750;11.970;2024-03-08T07:25:08;78131.38;;;-142.11;100.00
14800;BME280;7491;57.750;11.970;2024-03-08T07:27:46;78123.22;;;-142.11;100.00
14800;BME280;7491;57.750;11.970;2024-03-08T07:30:13;78127.31;;;-142.11;100.00
14800;BME280;7491;57.750;11.970;2024-03-08T07:33:01;78121.19;;;-142.11;100.00
14800;BME280;7491;57.750;11.970;2024-03-08T07:35:28;78106.91;;;-142.11;100.00
14800;BME280;7491;57.750;11.970;2024-03-08T07:37:54;78086.50;;;-142.11;100.00
14800;BME280;7491;57.750;11.970;2024-03-08T07:40:21;78092.63;;;-142.11;100.00
14800;BME280;7491;57.750;11.970;2024-03-08T07:42:48;78090.59;;;-142.11;100.00
14800;BME280;7491;57.750;11.970;2024-03-08T07:45:15;78064.06;;;-142.11;100.00
14800;BME280;7491;57.750;11.970;2024-03-08T07:47:42;78055.91;;;-142.11;100.00
14800;BME280;7491;57.750;11.970;2024-03-08T07:50:10;78037.56;;;-142.11;100.00
14800;BME280;7491;57.750;11.970;2024-03-08T07:52:41;78045.72;;;-142.11;100.00
14800;BME280;7491;57.750;11.970;2024-03-08T07:55:08;78035.53;;;-142.11;100.00
14800;BME280;7491;57.750;11.970;2024-03-08T07:57:35;78006.97;;;-142.11;100.00
14800;BME280;7491;57.750;11.970;2024-03-08T08:00:04;77990.66;;;-142.11;100.00
14800;BME280;7491;57.750;11.970;2024-03-08T08:02:32;78002.88;;;-142.11;100.00
14800;BME280;7491;57.750;11.970;2024-03-08T08:04:59;77978.41;;;-142.11;100.00
14800;BME280;7491;57.750;11.970;2024-03-08T08:07:27;77982.50;;;-142.11;100.00
14800;BME280;7491;57.750;11.970;2024-03-08T08:09:54;77968.22;;;-142.11;100.00
14800;BME280;7491;57.750;11.970;2024-03-08T08:12:20;77943.75;;;-142.11;100.00
14800;BME280;7491;57.750;11.970;2024-03-08T08:14:47;77933.53;;;-142.11;100.00
14800;BME280;7491;57.750;11.970;2024-03-08T08:17:14;77917.22;;;-142.11;100.00
14800;BME280;7491;57.750;11.970;2024-03-08T08:19:41;77939.66;;;-142.11;100.00
14800;BME280;7491;57.750;11.970;2024-03-08T08:22:08;77931.50;;;-142.11;100.00
14800;BME280;7491;57.750;11.970;2024-03-08T08:24:36;77900.91;;;-142.11;100.00
14800;BME280;7491;57.750;11.970;2024-03-08T08:27:03;77878.47;;;-142.11;100.00
14800;BME280;7491;57.750;11.970;2024-03-08T08:29:30;77864.19;;;-142.11;100.00
14800;BME280;7491;57.750;11.970;2024-03-08T08:31:58;77864.19;;;-142.11;100.00
14800;BME280;7491;57.750;11.970;2024-03-08T08:34:25;77837.69;;;-142.11;100.00
14800;BME280;7491;57.750;11.970;2024-03-08T08:36:51;77823.41;;;-142.11;100.00
14800;BME280;7491;57.750;11.970;2024-03-08T08:39:18;77807.09;;;-142.11;100.00
14800;BME280;7491;57.750;11.970;2024-03-08T08:41:49;77792.81;;;-142.11;100.00
14800;BME280;7491;57.750;11.970;2024-03-08T08:44:15;77770.38;;;-142.11;100.00
14800;BME280;7491;57.750;11.970;2024-03-08T08:46:42;77758.16;;;-142.11;100.00
14800;BME280;7491;57.750;11.970;2024-03-08T08:49:09;77756.09;;;-142.11;100.00
14800;BME280;7491;57.750;11.970;2024-03-08T08:51:39;77750.00;;;-142.11;100.00
14800;BME280;7491;57.750;11.970;2024-03-08T08:54:06;77768.34;;;-142.11;100.00
14800;BME280;7491;57.750;11.970;2024-03-08T08:56:33;77756.09;;;-142.11;100.00
14800;BME280;7491;57.750;11.970;2024-03-08T08:59:02;77711.25;;;-142.11;100.00
14800;BME280;7491;57.750;11.970;2024-03-08T09:01:29;77701.03;;;-142.11;100.00
14800;BME280;7491;57.750;11.970;2024-03-08T09:03:55;77699.00;;;-142.11;100.00
14800;BME280;7491;57.750;11.970;2024-03-08T09:06:22;77682.69;;;-142.11;100.00
14800;BME280;7491;57.750;11.970;2024-03-08T09:08:50;77694.91;;;-142.11;100.00
14800;BME280;7491;57.750;11.970;2024-03-08T09:11:17;77680.66;;;-142.11;100.00
14800;BME280;7491;57.750;11.970;2024-03-08T09:13:44;77656.19;;;-142.11;100.00
14800;BME280;7491;57.750;11.970;2024-03-08T09:16:12;77641.91;;;-142.11;100.00
14800;BME280;7491;57.750;11.970;2024-03-08T09:18:39;77625.59;;;-142.11;100.00
14800;BME280;7491;57.750;11.970;2024-03-08T09:21:07;77629.66;;;-142.11;100.00
14800;BME280;7491;57.750;11.970;2024-03-08T09:23:35;77611.31;;;-142.11;100.00
14800;BME280;7491;57.750;11.970;2024-03-08T09:26:02;77588.88;;;-142.11;100.00
14800;BME280;7491;57.750;11.970;2024-03-08T09:28:29;77558.28;;;-142.11;100.00
14800;BME280;7491;57.750;11.970;2024-03-08T09:30:56;77529.72;;;-142.11;100.00
14800;BME280;7491;57.750;11.970;2024-03-08T09:33:25;77539.94;;;-142.11;100.00
14800;BME280;7491;57.750;11.970;2024-03-08T09:35:54;77525.66;;;-142.11;100.00
14800;BME280;7491;57.750;11.970;2024-03-08T09:38:22;77509.34;;;-142.11;100.00
14800;BME280;7491;57.750;11.970;2024-03-08T09:40:50;77511.38;;;-142.11;100.00
14800;BME280;7491;57.750;11.970;2024-03-08T09:43:17;77501.19;;;-142.11;100.00
14800;BME280;7491;57.750;11.970;2024-03-08T09:45:45;77476.72;;;-142.11;100.00
14800;BME280;7491;57.750;11.970;2024-03-08T09:48:12;77466.50;;;-142.11;100.00
14800;BME280;7491;57.750;11.970;2024-03-08T09:50:40;77458.34;;;-142.11;100.00
14800;BME280;7491;57.750;11.970;2024-03-08T09:53:08;77444.09;;;-142.11;100.00
14800;BME280;7491;57.750;11.970;2024-03-08T09:55:35;77448.16;;;-142.11;100.00
14800;BME280;7491;57.750;11.970;2024-03-08T09:58:05;77437.97;;;-142.11;100.00
14800;BME280;7491;57.750;11.970;2024-03-08T10:00:50;77427.78;;;-142.11;100.00
14800;BME280;7491;57.750;11.970;2024-03-08T10:03:16;77403.31;;;-142.11;100.00
14800;BME280;7491;57.750;11.970;2024-03-08T10:05:44;77397.19;;;-142.11;100.00
14800;BME280;7491;57.750;11.970;2024-03-08T10:08:11;77389.03;;;-142.11;100.00
14800;BME280;7491;57.750;11.970;2024-03-08T10:10:38;77376.78;;;-142.11;100.00
14800;BME280;7491;57.750;11.970;2024-03-08T10:13:06;77366.59;;;-142.11;100.00
14800;BME280;7491;57.750;11.970;2024-03-08T10:15:33;77358.44;;;-142.11;100.00
14800;BME280;7491;57.750;11.970;2024-03-08T10:18:00;77331.94;;;-142.11;100.00
14800;BME280;7491;57.750;11.970;2024-03-08T10:20:30;77313.56;;;-142.11;100.00
14800;BME280;7491;57.750;11.970;2024-03-08T10:23:00;77315.63;;;-142.11;100.00
14800;BME280;7491;57.750;11.970;2024-03-08T10:25:28;77311.53;;;-142.11;100.00
14800;BME280;7491;57.750;11.970;2024-03-08T10:27:55;77301.34;;;-142.11;100.00
14800;BME280;7491;57.750;11.970;2024-03-08T10:30:22;77287.06;;;-142.11;100.00
14800;BME280;7491;57.750;11.970;2024-03-08T10:32:49;77283.00;;;-142.11;100.00
14800;BME280;7491;57.750;11.970;2024-03-08T10:35:17;77260.56;;;-142.11;100.00
14800;BME280;7491;57.750;11.970;2024-03-08T10:37:47;77270.75;;;-142.11;100.00
14800;BME280;7491;57.750;11.970;2024-03-08T10:40:18;77246.28;;;-142.11;100.00
14800;BME280;7491;57.750;11.970;2024-03-08T10:42:51;77223.84;;;-142.11;100.00
14800;BME280;7491;57.750;11.970;2024-03-08T10:45:26;77225.88;;;-142.11;100.00
14800;BME280;7491;57.750;11.970;2024-03-08T10:48:05;77236.09;;;-142.11;100.00
14800;BME280;7491;57.750;11.970;2024-03-08T10:50:35;77223.84;;;-142.11;100.00
14800;BME280;7491;57.750;11.970;2024-03-08T10:53:03;77197.34;;;-142.11;100.00
14800;BME280;7491;57.750;11.970;2024-03-08T10:55:33;77172.88;;;-142.11;100.00
14800;BME280;7491;57.750;11.970;2024-03-08T10:58:00;77164.72;;;-142.11;100.00
14800;BME280;7491;57.750;11.970;2024-03-08T11:00:27;77160.63;;;-142.11;100.00
14800;BME280;7491;57.750;11.970;2024-03-08T11:02:54;77156.56;;;-142.11;100.00
14800;BME280;7491;57.750;11.970;2024-03-08T11:05:32;77144.31;;;-142.11;100.00
14800;BME280;7491;57.750;11.970;2024-03-08T11:08:05;77140.25;;;-142.11;100.00
14800;BME280;7491;57.750;11.970;2024-03-08T11:10:33;77115.78;;;-142.11;100.00
14800;BME280;7491;57.750;11.970;2024-03-08T11:13:00;77115.78;;;-142.11;100.00
14800;BME280;7491;57.750;11.970;2024-03-08T11:15:29;77087.22;;;-142.11;100.00
14800;BME280;7491;57.750;11.970;2024-03-08T11:17:58;77091.31;;;-142.11;100.00
14800;BME280;7491;57.750;11.970;2024-03-08T11:20:26;77081.13;;;-142.11;100.00
14800;BME280;7491;57.750;11.970;2024-03-08T11:22:55;77070.91;;;-142.11;100.00
14800;BME280;7491;57.750;11.970;2024-03-08T11:25:33;77077.03;;;-142.11;98.80
14800;BME280;7491;57.750;11.970;2024-03-08T11:28:12;77052.56;;;-142.11;99.00
14800;BME280;7491;57.750;11.970;2024-03-08T11:30:46;77046.44;;;-142.11;99.05
14800;BME280;7491;57.750;11.970;2024-03-08T11:33:15;77044.41;;;-142.11;97.60
14800;BME280;7491;57.750;11.970;2024-03-08T11:35:42;77044.41;;;-142.11;97.34
14800;BME280;7491;57.750;11.970;2024-03-08T11:38:11;77005.66;;;-142.11;97.54
14800;BME280;7491;57.750;11.970;2024-03-08T11:40:39;76993.44;;;-142.11;97.94
14800;BME280;7491;57.750;11.970;2024-03-08T11:43:07;77021.97;;;-142.11;95.76
14800;BME280;7491;57.750;11.970;2024-03-08T11:45:34;76997.50;;;-142.11;96.76
14800;BME280;7491;57.750;11.970;2024-03-08T11:48:03;76981.22;;;-142.11;96.16
14800;BME280;7491;57.750;11.970;2024-03-08T11:50:30;76973.03;;;-142.11;96.80
14800;BME280;7491;57.750;11.970;2024-03-08T11:53:00;76954.69;;;-142.11;95.68
14800;BME280;7491;57.750;11.970;2024-03-08T11:55:28;76966.94;;;-142.11;94.48
14800;BME280;7491;57.750;11.970;2024-03-08T11:58:01;76930.22;;;-142.11;93.96
14800;BME280;7491;57.750;11.970;2024-03-08T12:00:28;76911.88;;;-142.11;93.99
14800;BME280;7491;57.750;11.970;2024-03-08T12:03:04;76903.72;;;-142.11;93.37
14800;BME280;7491;57.750;11.970;2024-03-08T12:05:35;76887.41;;;-142.11;93.76
14800;BME280;7491;57.750;11.970;2024-03-08T12:08:09;76889.44;;;-142.11;92.97
14800;BME280;7491;57.750;11.970;2024-03-08T12:10:43;76887.41;;;-142.11;92.16
14800;BME280;7491;57.750;11.970;2024-03-08T12:13:14;76893.53;;;-142.11;93.08
14800;BME280;7491;57.750;11.970;2024-03-08T12:15:53;76871.09;;;-142.11;92.40
14800;BME280;7491;57.750;11.970;2024-03-08T12:21:28;76846.63;;;-142.11;92.22
14800;BME280;7491;57.750;11.970;2024-03-08T12:24:17;76822.16;;;-142.11;92.07
14800;BME280;7491;57.750;11.970;2024-03-08T12:26:46;76814.00;;;-142.11;93.30
14800;BME280;7491;57.750;11.970;2024-03-08T12:29:24;76795.66;;;-142.11;92.66
14800;BME280;7491;57.750;11.970;2024-03-08T12:32:05;76809.94;;;-142.11;89.73
14800;BME280;7491;57.750;11.970;2024-03-08T12:34:33;76771.19;;;-142.11;91.26
14800;BME280;7491;57.750;11.970;2024-03-08T12:37:21;76763.03;;;-142.11;90.60